Hazlehurst, GA

4:07 AM EST on November 23, 2017 (GMT -0500)
Hazlehurst

Weather History for KAZE - November, 2012

Change the Weather History Date:

Sunday, November 25, 2012

  Actual Average Record
Temperature  
Mean Temperature 44 °F -  
Max Temperature 88 °F 73 °F 91 °F (2014)
Min Temperature 28 °F 43 °F 33 °F (2013)
Degree Days  
Heating Degree Days 20    
Moisture  
Dew Point 28 °F    
Average Humidity 62    
Maximum Humidity 93    
Minimum Humidity 26    
Precipitation  
Precipitation 0.00 in - - ()
Sea Level Pressure  
Sea Level Pressure 30.15 in    
Wind  
Wind Speed 0 mph ()    
Max Wind Speed 6 mph    
Max Gust Speed -    
Visibility 10.0 miles    
Events      
Averages and records for this station are not official NWS values.
T = Trace of Precipitation, MM = Missing Value Source: Averaged Metar Reports

Daily Weather History Graph

Daily Weather History Graph

Search for Another Location

Airport or City:

Trip Planner

Search our weather history database for the weather conditions in past years. The results will help you decide how hot, cold, wet, or windy it might be!

Date:

Astronomy

Nov. 25, 2012 Rise Set
Actual Time 7:08 AM EST 5:27 PM EST
Civil Twilight 6:41 AM EST 5:53 PM EST
Nautical Twilight 6:11 AM EST 6:23 PM EST
Astronomical Twilight 5:42 AM EST 6:52 PM EST
Moon 3:37 PM EST (11/25) 4:28 AM EST (11/25)
Length of Visible Light 11h 11m
Length of Day
10h 18m
Waxing Gibbous, 93% of the Moon is Illuminated
Nov 25
Waxing Gibbous
Nov 28
Full
Dec 6
Last Quarter
Dec 13
New
Dec 20
First Quarter

Hourly Weather History & Observations

Time (EST) Temp. Windchill Dew Point Humidity Pressure Visibility Wind Dir Wind Speed Gust Speed Precip Events Conditions
12:15 AM 35.4 °F - 31.1 °F 84% 30.14 in 10.0 mi Calm Calm - N/A   Clear
12:35 AM 34.0 °F - 31.6 °F 91% 30.13 in 10.0 mi Calm Calm - N/A   Clear
12:55 AM 33.8 °F - 30.9 °F 89% 30.13 in 10.0 mi Calm Calm - N/A   Clear
1:15 AM 34.0 °F - 29.7 °F 84% 30.12 in 10.0 mi Calm Calm - N/A   Clear
1:35 AM 33.6 °F - 30.2 °F 87% 30.12 in 10.0 mi Calm Calm - N/A   Clear
1:55 AM 32.5 °F - 30.6 °F 92% 30.12 in 10.0 mi Calm Calm - N/A   Clear
2:15 AM 32.2 °F - 30.4 °F 93% 30.12 in 10.0 mi Calm Calm - N/A   Clear
2:35 AM 32.4 °F - 29.8 °F 90% 30.12 in 10.0 mi Calm Calm - N/A   Clear
2:55 AM 32.2 °F - 30.2 °F 92% 30.12 in 10.0 mi Calm Calm - N/A   Clear
3:15 AM 31.8 °F - 28.6 °F 88% 30.13 in 10.0 mi Calm Calm - N/A   Clear
3:35 AM 31.5 °F - 27.5 °F 85% 30.13 in 10.0 mi Calm Calm - N/A   Clear
3:55 AM 31.5 °F - 27.9 °F 87% 30.13 in 10.0 mi Calm Calm - N/A   Clear
4:15 AM 31.1 °F - 28.9 °F 92% 30.13 in 10.0 mi Calm Calm - N/A   Clear
4:35 AM 30.2 °F - 28.4 °F 93% 30.13 in 10.0 mi Calm Calm - N/A   Clear
4:55 AM 30.4 °F - 27.9 °F 90% 30.14 in 10.0 mi Calm Calm - N/A   Clear
5:15 AM 29.8 °F - 27.1 °F 90% 30.14 in 10.0 mi Calm Calm - N/A   Clear
5:35 AM 29.8 °F - 25.9 °F 85% 30.14 in 10.0 mi Calm Calm - N/A   Clear
5:55 AM 29.8 °F - 26.1 °F 86% 30.15 in 10.0 mi Calm Calm - N/A   Clear
6:15 AM 29.3 °F - 27.5 °F 93% 30.15 in 10.0 mi Calm Calm - N/A   Clear
6:35 AM 28.9 °F - 25.9 °F 88% 30.16 in 10.0 mi Calm Calm - N/A   Clear
6:55 AM 29.8 °F - 25.5 °F 84% 30.16 in 10.0 mi Calm Calm - N/A   Clear
7:15 AM 30.4 °F - 25.5 °F 82% 30.17 in 10.0 mi Calm Calm - N/A   Clear
7:35 AM 30.2 °F - 25.7 °F 83% 30.18 in 10.0 mi Calm Calm - N/A   Clear
7:55 AM 31.1 °F - 26.2 °F 82% 30.18 in 10.0 mi Calm Calm - N/A   Clear
8:15 AM 33.4 °F - 26.4 °F 75% 30.19 in 10.0 mi Calm Calm - N/A   Clear
8:35 AM 34.3 °F 30.2 °F 26.2 °F 72% 30.19 in 10.0 mi NNW 4.6 mph - N/A   Clear
8:55 AM 35.6 °F 30.7 °F 26.4 °F 69% 30.19 in 10.0 mi North 5.8 mph - N/A   Clear
9:15 AM 36.9 °F 34.3 °F 26.4 °F 66% 30.19 in 10.0 mi North 3.5 mph - N/A   Clear
9:35 AM 38.8 °F - 27.1 °F 63% 30.20 in 10.0 mi Calm Calm - N/A   Clear
9:55 AM 41.7 °F - 28.0 °F 58% 30.20 in 10.0 mi Calm Calm - N/A   Clear
10:15 AM 43.9 °F - 28.2 °F 54% 30.20 in 10.0 mi Calm Calm - N/A   Clear
10:35 AM 46.0 °F - 28.8 °F 51% 30.20 in 10.0 mi Calm Calm - N/A   Clear
10:55 AM 47.8 °F - 28.9 °F 48% 30.20 in 10.0 mi Calm Calm - N/A   Clear
11:15 AM 50.2 °F - 28.9 °F 44% 30.19 in 10.0 mi Calm Calm - N/A   Clear
11:35 AM 51.8 °F - 28.8 °F 41% 30.19 in 10.0 mi Calm Calm - N/A   Clear
11:55 AM 53.8 °F - 28.0 °F 37% 30.18 in 10.0 mi Calm Calm - N/A   Clear
12:15 PM 54.9 °F - 27.0 °F 34% 30.17 in 10.0 mi West 4.6 mph - N/A   Clear
12:35 PM 56.3 °F - 26.8 °F 32% 30.16 in 10.0 mi Calm Calm - N/A   Clear
12:55 PM 57.2 °F - 25.3 °F 29% 30.15 in 10.0 mi Calm Calm - N/A   Clear
1:15 PM 57.7 °F - 24.8 °F 28% 30.14 in 10.0 mi Calm Calm - N/A   Clear
1:35 PM 58.6 °F - 26.4 °F 29% 30.13 in 10.0 mi WNW 5.8 mph - N/A   Clear
1:55 PM 59.4 °F - 25.3 °F 27% 30.12 in 10.0 mi Calm Calm - N/A   Clear
2:15 PM 60.1 °F - 26.2 °F 28% 30.12 in 10.0 mi Calm Calm - N/A   Clear
2:35 PM 60.6 °F - 26.2 °F 27% 30.11 in 10.0 mi Calm Calm - N/A   Clear
2:55 PM 60.6 °F - 25.5 °F 26% 30.11 in 10.0 mi West 3.5 mph - N/A   Clear
3:15 PM 61.2 °F - 26.1 °F 26% 30.10 in 10.0 mi Calm Calm - N/A   Clear
3:35 PM 61.0 °F - 25.3 °F 26% 30.11 in 10.0 mi WSW 4.6 mph - N/A   Clear
3:55 PM 61.2 °F - 25.3 °F 26% 30.10 in 10.0 mi SW 3.5 mph - N/A   Clear
4:15 PM 60.8 °F - 25.3 °F 26% 30.10 in 10.0 mi Calm Calm - N/A   Clear
4:35 PM 60.4 °F - 24.8 °F 26% 30.11 in 10.0 mi West 3.5 mph - N/A   Clear
4:55 PM 59.2 °F - 25.2 °F 27% 30.11 in 10.0 mi Calm Calm - N/A   Clear
5:15 PM 56.8 °F - 25.0 °F 29% 30.11 in 10.0 mi Calm Calm - N/A   Clear
5:35 PM 52.3 °F - 26.1 °F 36% 30.12 in 10.0 mi Calm Calm - N/A   Clear
5:55 PM 48.9 °F - 25.5 °F 40% 30.12 in 10.0 mi Calm Calm - N/A   Clear
6:15 PM 47.1 °F - 27.7 °F 47% 30.13 in 10.0 mi Calm Calm - N/A   Clear
6:35 PM 45.9 °F - 28.8 °F 51% 30.13 in 10.0 mi Calm Calm - N/A   Clear
6:55 PM 43.5 °F - 27.9 °F 54% 30.14 in 10.0 mi Calm Calm - N/A   Clear
7:15 PM 42.4 °F - 27.3 °F 55% 30.14 in 10.0 mi Calm Calm - N/A   Clear
7:35 PM 42.3 °F - 29.5 °F 61% 30.14 in 10.0 mi Calm Calm - N/A   Clear
7:55 PM 41.4 °F - 30.2 °F 65% 30.15 in 10.0 mi Calm Calm - N/A   Clear
8:15 PM 40.5 °F - 30.6 °F 68% 30.15 in 10.0 mi Calm Calm - N/A   Clear
8:35 PM 40.1 °F - 29.7 °F 66% 30.15 in 10.0 mi Calm Calm - N/A   Clear
8:55 PM 40.1 °F - 29.7 °F 66% 30.15 in 10.0 mi Calm Calm - N/A   Clear
9:15 PM 39.4 °F - 28.8 °F 66% 30.16 in 10.0 mi Calm Calm - N/A   Clear
9:35 PM 38.8 °F - 27.9 °F 65% 30.16 in 10.0 mi Calm Calm - N/A   Clear
9:55 PM 38.3 °F - 29.3 °F 70% 30.16 in 10.0 mi Calm Calm - N/A   Clear
10:15 PM 37.4 °F - 30.2 °F 75% 30.16 in 10.0 mi Calm Calm - N/A   Clear
10:35 PM 36.9 °F - 28.0 °F 70% 30.16 in 10.0 mi Calm Calm - N/A   Clear
10:55 PM 36.7 °F - 27.5 °F 69% 30.16 in 10.0 mi Calm Calm - N/A   Clear
11:15 PM 36.5 °F - 28.2 °F 72% 30.16 in 10.0 mi Calm Calm - N/A   Clear
11:35 PM 36.7 °F - 27.7 °F 70% 30.16 in 10.0 mi Calm Calm - N/A   Clear
11:55 PM 36.7 °F - 27.7 °F 70% 30.15 in 10.0 mi Calm Calm - N/A   Clear